sensor_id;sensor_type;location;lat;lon;timestamp;P1;durP1;ratioP1;P2;durP2;ratioP2
22097;SDS011;11215;51.938;8.464;2023-07-22T00:01:18;8.53;;;7.60;;
22097;SDS011;11215;51.938;8.464;2023-07-22T00:03:44;10.07;;;7.63;;
22097;SDS011;11215;51.938;8.464;2023-07-22T00:06:09;9.07;;;7.07;;
22097;SDS011;11215;51.938;8.464;2023-07-22T00:08:36;8.23;;;7.13;;
22097;SDS011;11215;51.938;8.464;2023-07-22T00:11:03;9.33;;;7.07;;
22097;SDS011;11215;51.938;8.464;2023-07-22T00:13:29;9.87;;;7.83;;
22097;SDS011;11215;51.938;8.464;2023-07-22T00:15:55;7.60;;;6.77;;
22097;SDS011;11215;51.938;8.464;2023-07-22T00:18:22;7.80;;;6.47;;
22097;SDS011;11215;51.938;8.464;2023-07-22T00:20:48;8.03;;;7.23;;
22097;SDS011;11215;51.938;8.464;2023-07-22T00:23:15;9.33;;;7.27;;
22097;SDS011;11215;51.938;8.464;2023-07-22T00:25:41;9.63;;;6.87;;
22097;SDS011;11215;51.938;8.464;2023-07-22T00:28:07;8.50;;;6.97;;
22097;SDS011;11215;51.938;8.464;2023-07-22T00:30:32;8.63;;;6.97;;
22097;SDS011;11215;51.938;8.464;2023-07-22T00:32:59;7.80;;;6.97;;
22097;SDS011;11215;51.938;8.464;2023-07-22T00:35:25;12.37;;;7.40;;
22097;SDS011;11215;51.938;8.464;2023-07-22T00:37:51;9.63;;;7.43;;
22097;SDS011;11215;51.938;8.464;2023-07-22T00:40:17;8.70;;;7.13;;
22097;SDS011;11215;51.938;8.464;2023-07-22T00:42:44;9.97;;;7.50;;
22097;SDS011;11215;51.938;8.464;2023-07-22T00:45:09;8.97;;;7.20;;
22097;SDS011;11215;51.938;8.464;2023-07-22T00:47:35;9.63;;;7.30;;
22097;SDS011;11215;51.938;8.464;2023-07-22T00:50:01;8.83;;;7.13;;
22097;SDS011;11215;51.938;8.464;2023-07-22T00:52:28;7.87;;;6.87;;
22097;SDS011;11215;51.938;8.464;2023-07-22T00:54:54;8.53;;;6.97;;
22097;SDS011;11215;51.938;8.464;2023-07-22T00:57:20;9.20;;;7.07;;
22097;SDS011;11215;51.938;8.464;2023-07-22T00:59:45;10.87;;;8.17;;
22097;SDS011;11215;51.938;8.464;2023-07-22T01:02:11;8.80;;;6.77;;
22097;SDS011;11215;51.938;8.464;2023-07-22T01:04:37;9.13;;;7.33;;
22097;SDS011;11215;51.938;8.464;2023-07-22T01:07:03;8.10;;;6.77;;
22097;SDS011;11215;51.938;8.464;2023-07-22T01:09:35;8.40;;;6.83;;
22097;SDS011;11215;51.938;8.464;2023-07-22T01:12:01;9.10;;;7.20;;
22097;SDS011;11215;51.938;8.464;2023-07-22T01:14:27;10.47;;;6.97;;
22097;SDS011;11215;51.938;8.464;2023-07-22T01:16:53;9.93;;;7.40;;
22097;SDS011;11215;51.938;8.464;2023-07-22T01:19:19;8.33;;;6.60;;
22097;SDS011;11215;51.938;8.464;2023-07-22T01:21:45;10.37;;;7.40;;
22097;SDS011;11215;51.938;8.464;2023-07-22T01:24:12;8.03;;;6.70;;
22097;SDS011;11215;51.938;8.464;2023-07-22T01:26:37;10.13;;;7.23;;
22097;SDS011;11215;51.938;8.464;2023-07-22T01:29:06;9.00;;;7.03;;
22097;SDS011;11215;51.938;8.464;2023-07-22T01:31:35;8.73;;;7.47;;
22097;SDS011;11215;51.938;8.464;2023-07-22T01:34:01;7.37;;;6.33;;
22097;SDS011;11215;51.938;8.464;2023-07-22T01:36:27;7.60;;;6.80;;
22097;SDS011;11215;51.938;8.464;2023-07-22T01:38:52;8.03;;;6.30;;
22097;SDS011;11215;51.938;8.464;2023-07-22T01:41:18;9.00;;;6.90;;
22097;SDS011;11215;51.938;8.464;2023-07-22T01:43:43;8.57;;;6.60;;
22097;SDS011;11215;51.938;8.464;2023-07-22T01:46:09;10.50;;;7.47;;
22097;SDS011;11215;51.938;8.464;2023-07-22T01:48:34;7.73;;;6.30;;
22097;SDS011;11215;51.938;8.464;2023-07-22T01:51:00;8.40;;;7.27;;
22097;SDS011;11215;51.938;8.464;2023-07-22T01:53:26;9.30;;;7.07;;
22097;SDS011;11215;51.938;8.464;2023-07-22T01:55:51;7.97;;;6.70;;
22097;SDS011;11215;51.938;8.464;2023-07-22T01:58:17;10.20;;;6.87;;
22097;SDS011;11215;51.938;8.464;2023-07-22T02:00:43;12.67;;;7.57;;
22097;SDS011;11215;51.938;8.464;2023-07-22T02:03:08;7.83;;;6.80;;
22097;SDS011;11215;51.938;8.464;2023-07-22T02:05:34;11.03;;;7.23;;
22097;SDS011;11215;51.938;8.464;2023-07-22T02:08:00;10.30;;;7.37;;
22097;SDS011;11215;51.938;8.464;2023-07-22T02:10:26;8.77;;;7.00;;
22097;SDS011;11215;51.938;8.464;2023-07-22T02:12:51;12.67;;;8.23;;
22097;SDS011;11215;51.938;8.464;2023-07-22T02:15:17;10.80;;;7.87;;
22097;SDS011;11215;51.938;8.464;2023-07-22T02:17:44;11.60;;;7.77;;
22097;SDS011;11215;51.938;8.464;2023-07-22T02:20:09;8.27;;;7.10;;
22097;SDS011;11215;51.938;8.464;2023-07-22T02:22:35;9.93;;;7.53;;
22097;SDS011;11215;51.938;8.464;2023-07-22T02:25:01;8.43;;;6.93;;
22097;SDS011;11215;51.938;8.464;2023-07-22T02:27:28;9.03;;;7.13;;
22097;SDS011;11215;51.938;8.464;2023-07-22T02:29:53;9.70;;;7.27;;
22097;SDS011;11215;51.938;8.464;2023-07-22T02:32:19;10.07;;;7.07;;
22097;SDS011;11215;51.938;8.464;2023-07-22T02:34:45;10.17;;;7.47;;
22097;SDS011;11215;51.938;8.464;2023-07-22T02:37:10;9.57;;;6.80;;
22097;SDS011;11215;51.938;8.464;2023-07-22T02:39:36;11.87;;;7.30;;
22097;SDS011;11215;51.938;8.464;2023-07-22T02:42:02;8.70;;;6.47;;
22097;SDS011;11215;51.938;8.464;2023-07-22T02:44:27;9.87;;;7.07;;
22097;SDS011;11215;51.938;8.464;2023-07-22T02:46:53;8.33;;;7.00;;
22097;SDS011;11215;51.938;8.464;2023-07-22T02:49:19;10.17;;;7.37;;
22097;SDS011;11215;51.938;8.464;2023-07-22T02:51:44;11.70;;;7.67;;
22097;SDS011;11215;51.938;8.464;2023-07-22T02:54:10;11.53;;;7.47;;
22097;SDS011;11215;51.938;8.464;2023-07-22T02:56:36;9.87;;;6.97;;
22097;SDS011;11215;51.938;8.464;2023-07-22T02:59:01;12.00;;;7.53;;
22097;SDS011;11215;51.938;8.464;2023-07-22T03:01:27;8.47;;;7.53;;
22097;SDS011;11215;51.938;8.464;2023-07-22T03:03:53;8.93;;;7.50;;
22097;SDS011;11215;51.938;8.464;2023-07-22T03:06:18;8.77;;;7.40;;
22097;SDS011;11215;51.938;8.464;2023-07-22T03:08:44;11.03;;;7.63;;
22097;SDS011;11215;51.938;8.464;2023-07-22T03:11:10;11.60;;;8.43;;
22097;SDS011;11215;51.938;8.464;2023-07-22T03:13:35;11.60;;;8.20;;
22097;SDS011;11215;51.938;8.464;2023-07-22T03:16:01;9.30;;;7.63;;
22097;SDS011;11215;51.938;8.464;2023-07-22T03:18:30;10.17;;;7.60;;
22097;SDS011;11215;51.938;8.464;2023-07-22T03:20:56;13.47;;;7.67;;
22097;SDS011;11215;51.938;8.464;2023-07-22T03:23:22;10.87;;;8.43;;
22097;SDS011;11215;51.938;8.464;2023-07-22T03:25:48;11.70;;;8.17;;
22097;SDS011;11215;51.938;8.464;2023-07-22T03:28:13;10.63;;;7.97;;
22097;SDS011;11215;51.938;8.464;2023-07-22T03:30:39;9.80;;;8.17;;
22097;SDS011;11215;51.938;8.464;2023-07-22T03:33:05;9.67;;;7.77;;
22097;SDS011;11215;51.938;8.464;2023-07-22T03:35:31;12.43;;;8.27;;
22097;SDS011;11215;51.938;8.464;2023-07-22T03:37:58;11.70;;;7.73;;
22097;SDS011;11215;51.938;8.464;2023-07-22T03:40:24;11.77;;;8.17;;
22097;SDS011;11215;51.938;8.464;2023-07-22T03:42:55;11.80;;;8.50;;
22097;SDS011;11215;51.938;8.464;2023-07-22T03:45:22;11.33;;;8.63;;
22097;SDS011;11215;51.938;8.464;2023-07-22T03:47:52;11.13;;;7.77;;
22097;SDS011;11215;51.938;8.464;2023-07-22T03:50:21;12.87;;;8.23;;
22097;SDS011;11215;51.938;8.464;2023-07-22T03:52:46;10.47;;;8.33;;
22097;SDS011;11215;51.938;8.464;2023-07-22T03:55:12;11.83;;;8.57;;
22097;SDS011;11215;51.938;8.464;2023-07-22T03:57:38;10.73;;;8.00;;
22097;SDS011;11215;51.938;8.464;2023-07-22T04:00:03;16.00;;;9.97;;
22097;SDS011;11215;51.938;8.464;2023-07-22T04:02:30;13.43;;;8.97;;
22097;SDS011;11215;51.938;8.464;2023-07-22T04:04:56;12.37;;;9.30;;
22097;SDS011;11215;51.938;8.464;2023-07-22T04:07:22;10.10;;;8.57;;
22097;SDS011;11215;51.938;8.464;2023-07-22T04:09:48;13.90;;;8.50;;
22097;SDS011;11215;51.938;8.464;2023-07-22T04:12:13;11.73;;;8.33;;
22097;SDS011;11215;51.938;8.464;2023-07-22T04:14:39;15.00;;;9.20;;
22097;SDS011;11215;51.938;8.464;2023-07-22T04:17:05;12.40;;;9.03;;
22097;SDS011;11215;51.938;8.464;2023-07-22T04:19:31;11.50;;;8.63;;
22097;SDS011;11215;51.938;8.464;2023-07-22T04:21:57;11.33;;;8.00;;
22097;SDS011;11215;51.938;8.464;2023-07-22T04:24:23;10.97;;;8.60;;
22097;SDS011;11215;51.938;8.464;2023-07-22T04:26:50;11.57;;;8.53;;
22097;SDS011;11215;51.938;8.464;2023-07-22T04:29:16;10.57;;;8.97;;
22097;SDS011;11215;51.938;8.464;2023-07-22T04:31:41;11.87;;;8.43;;
22097;SDS011;11215;51.938;8.464;2023-07-22T04:34:07;10.77;;;8.37;;
22097;SDS011;11215;51.938;8.464;2023-07-22T04:36:34;12.80;;;8.10;;
22097;SDS011;11215;51.938;8.464;2023-07-22T04:39:01;10.50;;;8.50;;
22097;SDS011;11215;51.938;8.464;2023-07-22T04:41:30;10.43;;;8.00;;
22097;SDS011;11215;51.938;8.464;2023-07-22T04:43:55;10.93;;;8.07;;
22097;SDS011;11215;51.938;8.464;2023-07-22T04:46:23;11.13;;;8.30;;
22097;SDS011;11215;51.938;8.464;2023-07-22T04:48:49;11.90;;;8.50;;
22097;SDS011;11215;51.938;8.464;2023-07-22T04:51:14;10.70;;;8.30;;
22097;SDS011;11215;51.938;8.464;2023-07-22T04:53:40;11.20;;;8.43;;
22097;SDS011;11215;51.938;8.464;2023-07-22T04:56:06;10.47;;;8.03;;
22097;SDS011;11215;51.938;8.464;2023-07-22T04:58:31;10.13;;;7.93;;
22097;SDS011;11215;51.938;8.464;2023-07-22T05:00:57;11.63;;;8.17;;
22097;SDS011;11215;51.938;8.464;2023-07-22T05:03:23;11.53;;;8.37;;
22097;SDS011;11215;51.938;8.464;2023-07-22T05:05:51;10.17;;;8.10;;
22097;SDS011;11215;51.938;8.464;2023-07-22T05:08:17;10.13;;;8.40;;
22097;SDS011;11215;51.938;8.464;2023-07-22T05:10:43;9.30;;;7.50;;
22097;SDS011;11215;51.938;8.464;2023-07-22T05:13:08;11.93;;;8.37;;
22097;SDS011;11215;51.938;8.464;2023-07-22T05:15:34;11.73;;;8.20;;
22097;SDS011;11215;51.938;8.464;2023-07-22T05:18:00;12.80;;;7.70;;
22097;SDS011;11215;51.938;8.464;2023-07-22T05:20:25;12.60;;;8.57;;
22097;SDS011;11215;51.938;8.464;2023-07-22T05:22:51;9.83;;;8.77;;
22097;SDS011;11215;51.938;8.464;2023-07-22T05:25:17;12.33;;;7.80;;
22097;SDS011;11215;51.938;8.464;2023-07-22T05:27:42;11.57;;;8.63;;
22097;SDS011;11215;51.938;8.464;2023-07-22T05:30:08;10.77;;;7.87;;
22097;SDS011;11215;51.938;8.464;2023-07-22T05:32:34;11.77;;;8.03;;
22097;SDS011;11215;51.938;8.464;2023-07-22T05:35:00;10.40;;;8.20;;
22097;SDS011;11215;51.938;8.464;2023-07-22T05:37:29;12.00;;;8.57;;
22097;SDS011;11215;51.938;8.464;2023-07-22T05:39:54;9.87;;;8.07;;
22097;SDS011;11215;51.938;8.464;2023-07-22T05:42:20;12.23;;;8.40;;
22097;SDS011;11215;51.938;8.464;2023-07-22T05:44:45;12.00;;;8.20;;
22097;SDS011;11215;51.938;8.464;2023-07-22T05:47:11;12.47;;;8.03;;
22097;SDS011;11215;51.938;8.464;2023-07-22T05:49:37;14.57;;;8.10;;
22097;SDS011;11215;51.938;8.464;2023-07-22T05:52:02;11.93;;;8.83;;
22097;SDS011;11215;51.938;8.464;2023-07-22T05:54:28;12.70;;;8.20;;
22097;SDS011;11215;51.938;8.464;2023-07-22T05:56:54;13.37;;;8.40;;
22097;SDS011;11215;51.938;8.464;2023-07-22T05:59:19;12.67;;;8.80;;
22097;SDS011;11215;51.938;8.464;2023-07-22T06:01:45;10.23;;;8.60;;
22097;SDS011;11215;51.938;8.464;2023-07-22T06:04:10;11.43;;;8.30;;
22097;SDS011;11215;51.938;8.464;2023-07-22T06:06:36;12.27;;;9.60;;
22097;SDS011;11215;51.938;8.464;2023-07-22T06:09:02;10.97;;;8.73;;
22097;SDS011;11215;51.938;8.464;2023-07-22T06:11:27;12.03;;;8.30;;
22097;SDS011;11215;51.938;8.464;2023-07-22T06:13:53;10.23;;;8.30;;
22097;SDS011;11215;51.938;8.464;2023-07-22T06:16:19;12.87;;;9.30;;
22097;SDS011;11215;51.938;8.464;2023-07-22T06:18:45;12.03;;;8.90;;
22097;SDS011;11215;51.938;8.464;2023-07-22T06:21:10;11.47;;;8.63;;
22097;SDS011;11215;51.938;8.464;2023-07-22T06:23:36;11.77;;;8.10;;
22097;SDS011;11215;51.938;8.464;2023-07-22T06:26:02;10.87;;;8.40;;
22097;SDS011;11215;51.938;8.464;2023-07-22T06:28:27;9.77;;;8.60;;
22097;SDS011;11215;51.938;8.464;2023-07-22T06:30:53;11.30;;;7.47;;
22097;SDS011;11215;51.938;8.464;2023-07-22T06:33:19;10.83;;;8.03;;
22097;SDS011;11215;51.938;8.464;2023-07-22T06:35:44;13.37;;;8.43;;
22097;SDS011;11215;51.938;8.464;2023-07-22T06:38:10;8.97;;;7.90;;
22097;SDS011;11215;51.938;8.464;2023-07-22T06:40:35;9.20;;;7.80;;
22097;SDS011;11215;51.938;8.464;2023-07-22T06:43:01;10.10;;;7.87;;
22097;SDS011;11215;51.938;8.464;2023-07-22T06:45:27;12.17;;;8.20;;
22097;SDS011;11215;51.938;8.464;2023-07-22T06:47:52;12.53;;;9.03;;
22097;SDS011;11215;51.938;8.464;2023-07-22T06:50:18;10.27;;;7.73;;
22097;SDS011;11215;51.938;8.464;2023-07-22T06:52:44;10.53;;;7.40;;
22097;SDS011;11215;51.938;8.464;2023-07-22T06:55:09;11.00;;;8.30;;
22097;SDS011;11215;51.938;8.464;2023-07-22T06:57:35;10.60;;;7.53;;
22097;SDS011;11215;51.938;8.464;2023-07-22T07:00:02;9.33;;;7.47;;
22097;SDS011;11215;51.938;8.464;2023-07-22T07:02:30;10.23;;;8.00;;
22097;SDS011;11215;51.938;8.464;2023-07-22T07:04:55;14.40;;;8.13;;
22097;SDS011;11215;51.938;8.464;2023-07-22T07:07:21;11.33;;;8.30;;
22097;SDS011;11215;51.938;8.464;2023-07-22T07:09:47;11.13;;;7.77;;
22097;SDS011;11215;51.938;8.464;2023-07-22T07:12:12;9.63;;;7.80;;
22097;SDS011;11215;51.938;8.464;2023-07-22T07:14:38;10.13;;;7.93;;
22097;SDS011;11215;51.938;8.464;2023-07-22T07:17:03;11.23;;;7.73;;
22097;SDS011;11215;51.938;8.464;2023-07-22T07:19:29;9.70;;;7.40;;
22097;SDS011;11215;51.938;8.464;2023-07-22T07:21:55;10.77;;;8.23;;
22097;SDS011;11215;51.938;8.464;2023-07-22T07:24:20;12.50;;;8.23;;
22097;SDS011;11215;51.938;8.464;2023-07-22T07:26:46;11.00;;;8.17;;
22097;SDS011;11215;51.938;8.464;2023-07-22T07:29:12;10.40;;;8.80;;
22097;SDS011;11215;51.938;8.464;2023-07-22T07:31:38;19.63;;;11.07;;
22097;SDS011;11215;51.938;8.464;2023-07-22T07:34:04;12.27;;;9.27;;
22097;SDS011;11215;51.938;8.464;2023-07-22T07:36:31;14.57;;;9.90;;
22097;SDS011;11215;51.938;8.464;2023-07-22T07:38:57;10.67;;;9.57;;
22097;SDS011;11215;51.938;8.464;2023-07-22T07:41:23;13.90;;;10.50;;
22097;SDS011;11215;51.938;8.464;2023-07-22T07:43:48;14.73;;;11.17;;
22097;SDS011;11215;51.938;8.464;2023-07-22T07:48:48;13.23;;;9.43;;
22097;SDS011;11215;51.938;8.464;2023-07-22T07:51:18;13.47;;;9.17;;
22097;SDS011;11215;51.938;8.464;2023-07-22T07:53:45;11.60;;;8.77;;
22097;SDS011;11215;51.938;8.464;2023-07-22T07:56:15;14.23;;;9.30;;
22097;SDS011;11215;51.938;8.464;2023-07-22T07:58:41;12.27;;;9.40;;
22097;SDS011;11215;51.938;8.464;2023-07-22T08:01:07;11.40;;;8.83;;
22097;SDS011;11215;51.938;8.464;2023-07-22T08:03:34;11.77;;;8.80;;
22097;SDS011;11215;51.938;8.464;2023-07-22T08:06:01;9.87;;;7.80;;
22097;SDS011;11215;51.938;8.464;2023-07-22T08:08:27;13.67;;;8.13;;
22097;SDS011;11215;51.938;8.464;2023-07-22T08:11:06;12.47;;;9.17;;
22097;SDS011;11215;51.938;8.464;2023-07-22T08:13:33;11.00;;;7.50;;
22097;SDS011;11215;51.938;8.464;2023-07-22T08:16:01;12.33;;;8.27;;
22097;SDS011;11215;51.938;8.464;2023-07-22T08:18:28;9.67;;;7.47;;
22097;SDS011;11215;51.938;8.464;2023-07-22T08:20:55;12.57;;;8.00;;
22097;SDS011;11215;51.938;8.464;2023-07-22T08:23:21;12.43;;;8.23;;
22097;SDS011;11215;51.938;8.464;2023-07-22T08:25:46;11.93;;;8.87;;
22097;SDS011;11215;51.938;8.464;2023-07-22T08:28:12;12.20;;;8.67;;
22097;SDS011;11215;51.938;8.464;2023-07-22T08:30:39;13.20;;;10.17;;
22097;SDS011;11215;51.938;8.464;2023-07-22T08:33:05;14.37;;;10.43;;
22097;SDS011;11215;51.938;8.464;2023-07-22T08:35:33;14.23;;;8.93;;
22097;SDS011;11215;51.938;8.464;2023-07-22T08:38:00;13.67;;;9.30;;
22097;SDS011;11215;51.938;8.464;2023-07-22T08:40:27;14.67;;;10.40;;
22097;SDS011;11215;51.938;8.464;2023-07-22T08:42:57;16.10;;;10.27;;
22097;SDS011;11215;51.938;8.464;2023-07-22T08:45:23;13.23;;;9.27;;
22097;SDS011;11215;51.938;8.464;2023-07-22T08:47:54;13.37;;;8.87;;
22097;SDS011;11215;51.938;8.464;2023-07-22T08:50:23;13.30;;;8.40;;
22097;SDS011;11215;51.938;8.464;2023-07-22T08:52:54;12.67;;;8.97;;
22097;SDS011;11215;51.938;8.464;2023-07-22T08:55:20;11.90;;;9.10;;
22097;SDS011;11215;51.938;8.464;2023-07-22T08:57:46;12.10;;;8.23;;
22097;SDS011;11215;51.938;8.464;2023-07-22T09:00:13;13.47;;;9.00;;
22097;SDS011;11215;51.938;8.464;2023-07-22T09:02:39;16.07;;;8.40;;
22097;SDS011;11215;51.938;8.464;2023-07-22T09:05:06;12.20;;;8.87;;
22097;SDS011;11215;51.938;8.464;2023-07-22T09:07:34;12.30;;;8.87;;
22097;SDS011;11215;51.938;8.464;2023-07-22T09:10:00;13.20;;;9.23;;
22097;SDS011;11215;51.938;8.464;2023-07-22T09:12:27;12.60;;;9.03;;
22097;SDS011;11215;51.938;8.464;2023-07-22T09:14:54;12.20;;;8.37;;
22097;SDS011;11215;51.938;8.464;2023-07-22T09:17:20;12.60;;;9.03;;
22097;SDS011;11215;51.938;8.464;2023-07-22T09:19:47;12.93;;;8.87;;
22097;SDS011;11215;51.938;8.464;2023-07-22T09:22:24;11.20;;;8.23;;
22097;SDS011;11215;51.938;8.464;2023-07-22T09:24:51;13.53;;;8.07;;
22097;SDS011;11215;51.938;8.464;2023-07-22T09:27:25;12.87;;;8.43;;
22097;SDS011;11215;51.938;8.464;2023-07-22T09:29:58;9.57;;;7.17;;
22097;SDS011;11215;51.938;8.464;2023-07-22T09:32:35;11.57;;;8.20;;
22097;SDS011;11215;51.938;8.464;2023-07-22T09:35:02;10.83;;;8.47;;
22097;SDS011;11215;51.938;8.464;2023-07-22T09:37:37;11.23;;;7.70;;
22097;SDS011;11215;51.938;8.464;2023-07-22T09:40:13;8.47;;;7.27;;
22097;SDS011;11215;51.938;8.464;2023-07-22T09:42:52;9.03;;;6.63;;
22097;SDS011;11215;51.938;8.464;2023-07-22T09:45:22;8.70;;;6.57;;
22097;SDS011;11215;51.938;8.464;2023-07-22T09:47:50;7.37;;;6.50;;
22097;SDS011;11215;51.938;8.464;2023-07-22T09:50:21;7.70;;;6.63;;
22097;SDS011;11215;51.938;8.464;2023-07-22T09:52:48;8.47;;;5.90;;
22097;SDS011;11215;51.938;8.464;2023-07-22T09:55:19;8.40;;;5.67;;
22097;SDS011;11215;51.938;8.464;2023-07-22T09:57:50;10.13;;;7.20;;
22097;SDS011;11215;51.938;8.464;2023-07-22T10:00:18;9.17;;;7.07;;
22097;SDS011;11215;51.938;8.464;2023-07-22T10:02:47;9.77;;;7.07;;
22097;SDS011;11215;51.938;8.464;2023-07-22T10:05:17;10.07;;;6.90;;
22097;SDS011;11215;51.938;8.464;2023-07-22T10:07:48;7.73;;;6.50;;
22097;SDS011;11215;51.938;8.464;2023-07-22T10:10:19;8.67;;;6.43;;
22097;SDS011;11215;51.938;8.464;2023-07-22T10:12:46;7.70;;;5.93;;
22097;SDS011;11215;51.938;8.464;2023-07-22T10:15:15;8.40;;;6.80;;
22097;SDS011;11215;51.938;8.464;2023-07-22T10:17:45;9.00;;;6.13;;
22097;SDS011;11215;51.938;8.464;2023-07-22T10:20:12;8.53;;;7.07;;
22097;SDS011;11215;51.938;8.464;2023-07-22T10:22:43;7.17;;;6.23;;
22097;SDS011;11215;51.938;8.464;2023-07-22T10:25:10;8.03;;;6.33;;
22097;SDS011;11215;51.938;8.464;2023-07-22T10:27:38;8.73;;;6.90;;
22097;SDS011;11215;51.938;8.464;2023-07-22T10:30:11;8.40;;;6.37;;
22097;SDS011;11215;51.938;8.464;2023-07-22T10:32:41;8.60;;;6.57;;
22097;SDS011;11215;51.938;8.464;2023-07-22T10:35:16;6.90;;;5.83;;
22097;SDS011;11215;51.938;8.464;2023-07-22T10:37:44;8.67;;;5.87;;
22097;SDS011;11215;51.938;8.464;2023-07-22T10:40:25;7.60;;;6.20;;
22097;SDS011;11215;51.938;8.464;2023-07-22T10:42:59;7.20;;;5.70;;
22097;SDS011;11215;51.938;8.464;2023-07-22T10:45:32;7.63;;;5.90;;
22097;SDS011;11215;51.938;8.464;2023-07-22T10:53:40;7.47;;;5.67;;
22097;SDS011;11215;51.938;8.464;2023-07-22T10:56:06;7.17;;;5.43;;
22097;SDS011;11215;51.938;8.464;2023-07-22T11:06:36;7.17;;;5.03;;
22097;SDS011;11215;51.938;8.464;2023-07-22T11:11:55;7.00;;;5.23;;
22097;SDS011;11215;51.938;8.464;2023-07-22T11:14:23;6.93;;;5.40;;
22097;SDS011;11215;51.938;8.464;2023-07-22T11:16:50;6.40;;;5.27;;
22097;SDS011;11215;51.938;8.464;2023-07-22T11:19:16;6.80;;;5.60;;
22097;SDS011;11215;51.938;8.464;2023-07-22T11:21:45;7.30;;;5.33;;
22097;SDS011;11215;51.938;8.464;2023-07-22T11:24:12;6.60;;;5.80;;
22097;SDS011;11215;51.938;8.464;2023-07-22T11:26:38;6.70;;;5.43;;
22097;SDS011;11215;51.938;8.464;2023-07-22T11:29:06;6.53;;;5.77;;
22097;SDS011;11215;51.938;8.464;2023-07-22T11:31:37;5.97;;;5.17;;
22097;SDS011;11215;51.938;8.464;2023-07-22T11:34:14;8.03;;;5.30;;
22097;SDS011;11215;51.938;8.464;2023-07-22T11:36:40;6.87;;;5.13;;
22097;SDS011;11215;51.938;8.464;2023-07-22T11:39:07;7.97;;;5.80;;
22097;SDS011;11215;51.938;8.464;2023-07-22T11:41:35;9.67;;;5.60;;
22097;SDS011;11215;51.938;8.464;2023-07-22T11:44:01;6.37;;;5.43;;
22097;SDS011;11215;51.938;8.464;2023-07-22T11:46:33;7.23;;;5.70;;
22097;SDS011;11215;51.938;8.464;2023-07-22T11:49:11;5.77;;;4.93;;
22097;SDS011;11215;51.938;8.464;2023-07-22T11:51:37;5.90;;;5.30;;
22097;SDS011;11215;51.938;8.464;2023-07-22T11:54:07;4.97;;;4.47;;
22097;SDS011;11215;51.938;8.464;2023-07-22T11:56:33;5.20;;;4.70;;
22097;SDS011;11215;51.938;8.464;2023-07-22T11:58:59;5.83;;;5.00;;
22097;SDS011;11215;51.938;8.464;2023-07-22T12:01:27;6.00;;;5.40;;
22097;SDS011;11215;51.938;8.464;2023-07-22T12:03:57;5.40;;;4.70;;
22097;SDS011;11215;51.938;8.464;2023-07-22T12:06:26;5.23;;;4.73;;
22097;SDS011;11215;51.938;8.464;2023-07-22T12:08:52;6.97;;;5.23;;
22097;SDS011;11215;51.938;8.464;2023-07-22T12:11:19;5.77;;;4.47;;
22097;SDS011;11215;51.938;8.464;2023-07-22T12:13:46;5.60;;;5.00;;
22097;SDS011;11215;51.938;8.464;2023-07-22T12:16:20;8.03;;;6.80;;
22097;SDS011;11215;51.938;8.464;2023-07-22T12:18:48;7.50;;;5.27;;
22097;SDS011;11215;51.938;8.464;2023-07-22T12:21:14;7.13;;;5.97;;
22097;SDS011;11215;51.938;8.464;2023-07-22T12:23:40;5.93;;;5.27;;
22097;SDS011;11215;51.938;8.464;2023-07-22T12:26:06;5.33;;;4.83;;
22097;SDS011;11215;51.938;8.464;2023-07-22T12:28:33;5.43;;;4.87;;
22097;SDS011;11215;51.938;8.464;2023-07-22T12:30:58;8.63;;;4.87;;
22097;SDS011;11215;51.938;8.464;2023-07-22T12:33:25;5.33;;;4.83;;
22097;SDS011;11215;51.938;8.464;2023-07-22T12:35:52;5.03;;;4.53;;
22097;SDS011;11215;51.938;8.464;2023-07-22T12:38:19;5.80;;;4.43;;
22097;SDS011;11215;51.938;8.464;2023-07-22T12:40:44;8.97;;;4.40;;
22097;SDS011;11215;51.938;8.464;2023-07-22T12:43:10;6.00;;;4.90;;
22097;SDS011;11215;51.938;8.464;2023-07-22T12:45:36;6.37;;;5.60;;
22097;SDS011;11215;51.938;8.464;2023-07-22T12:48:01;5.23;;;4.70;;
22097;SDS011;11215;51.938;8.464;2023-07-22T12:50:29;5.87;;;4.93;;
22097;SDS011;11215;51.938;8.464;2023-07-22T12:52:55;5.33;;;4.70;;
22097;SDS011;11215;51.938;8.464;2023-07-22T12:55:20;5.30;;;4.80;;
22097;SDS011;11215;51.938;8.464;2023-07-22T12:57:46;5.27;;;4.27;;
22097;SDS011;11215;51.938;8.464;2023-07-22T13:00:12;5.80;;;4.30;;
22097;SDS011;11215;51.938;8.464;2023-07-22T13:02:38;5.67;;;4.63;;
22097;SDS011;11215;51.938;8.464;2023-07-22T13:05:04;4.70;;;4.20;;
22097;SDS011;11215;51.938;8.464;2023-07-22T13:07:33;5.37;;;3.60;;
22097;SDS011;11215;51.938;8.464;2023-07-22T13:09:58;3.70;;;3.10;;
22097;SDS011;11215;51.938;8.464;2023-07-22T13:12:27;4.50;;;3.90;;
22097;SDS011;11215;51.938;8.464;2023-07-22T13:14:53;6.63;;;4.17;;
22097;SDS011;11215;51.938;8.464;2023-07-22T13:17:18;5.33;;;4.00;;
22097;SDS011;11215;51.938;8.464;2023-07-22T13:19:44;4.10;;;3.67;;
22097;SDS011;11215;51.938;8.464;2023-07-22T13:22:10;4.40;;;3.77;;
22097;SDS011;11215;51.938;8.464;2023-07-22T13:24:36;4.90;;;3.53;;
22097;SDS011;11215;51.938;8.464;2023-07-22T13:27:01;3.93;;;3.53;;
22097;SDS011;11215;51.938;8.464;2023-07-22T13:29:28;6.07;;;3.40;;
22097;SDS011;11215;51.938;8.464;2023-07-22T13:31:53;4.60;;;4.13;;
22097;SDS011;11215;51.938;8.464;2023-07-22T13:34:19;4.27;;;3.87;;
22097;SDS011;11215;51.938;8.464;2023-07-22T13:36:45;4.57;;;3.73;;
22097;SDS011;11215;51.938;8.464;2023-07-22T13:39:11;5.07;;;4.27;;
22097;SDS011;11215;51.938;8.464;2023-07-22T13:41:36;4.43;;;3.80;;
22097;SDS011;11215;51.938;8.464;2023-07-22T13:44:02;4.60;;;4.10;;
22097;SDS011;11215;51.938;8.464;2023-07-22T13:46:28;4.73;;;3.93;;
22097;SDS011;11215;51.938;8.464;2023-07-22T13:48:53;5.03;;;4.07;;
22097;SDS011;11215;51.938;8.464;2023-07-22T13:51:19;3.57;;;3.27;;
22097;SDS011;11215;51.938;8.464;2023-07-22T13:53:44;4.20;;;3.80;;
22097;SDS011;11215;51.938;8.464;2023-07-22T13:56:10;7.33;;;3.70;;
22097;SDS011;11215;51.938;8.464;2023-07-22T13:58:36;5.73;;;3.60;;
22097;SDS011;11215;51.938;8.464;2023-07-22T14:01:01;4.50;;;3.30;;
22097;SDS011;11215;51.938;8.464;2023-07-22T14:03:27;3.67;;;3.30;;
22097;SDS011;11215;51.938;8.464;2023-07-22T14:05:53;4.60;;;3.57;;
22097;SDS011;11215;51.938;8.464;2023-07-22T14:08:19;4.30;;;3.63;;
22097;SDS011;11215;51.938;8.464;2023-07-22T14:10:44;5.93;;;3.77;;
22097;SDS011;11215;51.938;8.464;2023-07-22T14:13:10;6.17;;;4.23;;
22097;SDS011;11215;51.938;8.464;2023-07-22T14:15:36;5.53;;;4.00;;
22097;SDS011;11215;51.938;8.464;2023-07-22T14:18:02;5.77;;;4.73;;
22097;SDS011;11215;51.938;8.464;2023-07-22T14:20:28;4.30;;;3.90;;
22097;SDS011;11215;51.938;8.464;2023-07-22T14:22:55;4.03;;;3.63;;
22097;SDS011;11215;51.938;8.464;2023-07-22T14:25:21;3.73;;;3.33;;
22097;SDS011;11215;51.938;8.464;2023-07-22T14:27:47;3.60;;;3.07;;
22097;SDS011;11215;51.938;8.464;2023-07-22T14:30:13;3.80;;;3.30;;
22097;SDS011;11215;51.938;8.464;2023-07-22T14:32:38;3.57;;;2.87;;
22097;SDS011;11215;51.938;8.464;2023-07-22T14:35:04;3.43;;;2.93;;
22097;SDS011;11215;51.938;8.464;2023-07-22T14:37:30;3.90;;;3.00;;
22097;SDS011;11215;51.938;8.464;2023-07-22T14:39:56;3.30;;;2.93;;
22097;SDS011;11215;51.938;8.464;2023-07-22T14:42:21;5.10;;;3.50;;
22097;SDS011;11215;51.938;8.464;2023-07-22T14:44:47;4.67;;;3.20;;
22097;SDS011;11215;51.938;8.464;2023-07-22T14:47:13;4.17;;;3.30;;
22097;SDS011;11215;51.938;8.464;2023-07-22T14:49:38;4.43;;;2.70;;
22097;SDS011;11215;51.938;8.464;2023-07-22T14:52:04;4.43;;;2.77;;
22097;SDS011;11215;51.938;8.464;2023-07-22T14:54:30;3.33;;;2.50;;
22097;SDS011;11215;51.938;8.464;2023-07-22T14:56:56;3.40;;;3.10;;